• Join FlightAware (Why Join?)
  • Login
  • US Flag 
01:00PM EDT


 

Airport Tracker/Info


-or-


 

Live Flight TrackerFlight Track Log ✈ N193PC ✈ 12-Jun-2014 ✈ KSFZ - KBTV

Flight Track Log - Related Links

Times and Time Zones

All times are in EDT time to prevent confusion due to time zone crossing. See the N193PC flight status page for this flight to view local times or setup timezone preferences in your user account.

Time Position Orientation Groundspeed Altitude Reporting Facility
EDT Latitude Longitude Course Direction KTS MPH feet Rate Location/Type
12:08PM 41.9317 -71.4836 350° North 100 115 1,000  Level Boston Center
12:09PM 41.9600 -71.5317 308° West 230 265 3,600 2,760 Climbing Boston Center
12:10PM 41.9372 -71.6131 249° West 242 278 6,600 3,000 Climbing Boston Center
12:11PM 42.1344 -71.9005 342° North  Level FlightAware Approximate
12:11PM 41.9458 -71.7128 277° West 251 289 9,800  Level Boston Center
12:12PM 42.2072 -71.9316 342° North  Level FlightAware Approximate
12:12PM 41.9775 -71.7914 298° West 262 302 12,400  Level Boston Center
12:13PM 42.2802 -71.9621 344° North  Level FlightAware Approximate
12:13PM 42.0500 -71.8286 339° North 283 326 14,900  Level Boston Center
12:14PM 42.3540 -71.9885 350° North  Level FlightAware Approximate
12:14PM 42.1314 -71.8722 338° Northwest 289 333 17,600  Level Boston Center
12:15PM 42.1944 -71.9033 340° North 290 334 19,500 1,140 Climbing Boston Center
12:16PM 42.2917 -71.9556 338° Northwest 309 356 20,000 240 Climbing Boston Center
12:17PM 42.3808 -72.0033 338° Northwest 336 387 20,000 240 Level Boston Center
12:18PM 42.4706 -72.0492 339° North 344 396 20,600 960 Climbing Boston Center
12:19PM 42.5556 -72.0956 338° Northwest 337 388 22,000 660 Climbing Boston Center
12:20PM 42.6461 -72.1442 338° Northwest 351 404 22,000  Level Boston Center
12:21PM 42.7408 -72.1950 338° Northwest 364 419 22,000  Level Boston Center
12:22PM 42.8569 -72.2575 338° Northwest 372 428 22,000  Level Boston Center
12:23PM 42.9564 -72.3097 339° North 372 428 22,000  Level Boston Center
12:25PM 43.0497 -72.3614 338° Northwest 366 421 22,000  Level Boston Center
12:26PM 43.1394 -72.4097 339° North 365 420 22,000  Level Boston Center
12:27PM 43.2331 -72.4608 338° Northwest 365 420 22,000  Level Boston Center
12:28PM 43.3267 -72.5114 339° North 365 420 22,000 -240 Level Boston Center
12:29PM 43.4186 -72.5633 338° Northwest 362 417 21,600 -1,260 Descending Boston Center
12:30PM 43.5317 -72.6267 338° Northwest 364 419 19,500 -1,920 Descending Boston Center
12:31PM 43.6214 -72.6753 339° North 351 404 17,700 -1,800 Descending Boston Center
12:32PM 43.7147 -72.7258 339° North 339 390 15,900 -1,740 Descending Boston Center
12:33PM 43.7986 -72.7736 338° Northwest 333 383 14,100 -1,740 Descending Boston Center
12:34PM 43.8886 -72.8239 338° Northwest 330 380 12,300 -1,620 Descending Boston Center
12:35PM 43.9672 -72.8769 334° Northwest 315 362 10,900 -1,500 Descending Boston Center
12:36PM 44.0458 -72.9458 328° Northwest 313 360 9,300 -1,020 Descending Boston Center
12:37PM 44.1164 -73.0061 328° Northwest 302 348 8,900 -540 Descending Boston Center
12:38PM 44.1850 -73.0636 329° Northwest 293 337 8,300 -840 Descending Boston Center
12:39PM 44.2578 -73.1233 330° Northwest 286 329 7,200 -1,140 Descending Boston Center
12:40PM 44.3258 -73.1817 328° Northwest 287 330 6,000 -1,260 Descending Boston Center
12:41PM 44.3922 -73.2375 329° Northwest 282 325 4,700 -1,380 Descending Boston Center
12:42PM 44.4614 -73.3053 325° Northwest 282 325 3,200 -900 Descending Boston Center
12:43PM 44.5150 -73.3719 318° Northwest 261 300 2,900 -360 Descending Boston Center
12:44PM 44.5686 -73.3892 347° North 229 264 2,500 -420 Descending Boston Center
12:45PM 44.5708 -73.3133 88° East 186 214 2,100 -180 Descending Boston Center
12:46PM 44.5442 -73.2697 131° Southeast 156 180 2,200 -300 Climbing Boston Center
12:47PM 44.5189 -73.2278 130° Southeast 136 157 1,500 -660 Descending Boston Center
12:48PM 44.4994 -73.1961 131° Southeast 113 130 900 -600 Descending Boston Center
12:49PM 44.4797 -73.1642 131° Southeast 103 119 300 -600 Descending Boston Center